Главная страница
METAR-TAF:

METAR-TAF

Аэропорты :

Карачи, Пакистан

Джинна

широта: 24-54N, долгота: 067-08E, высота над уровнем моря: 21 м

Текущие метеонаблюдения

Эта сводка был подготовлена 10 минут назад, в 14:25 UTC
Ветер 15 Узел от юго-западный
Температура 28°C
Влажность 74%
Давление 1006 hPa
Видимость: 6000 м

METAR: OPKC 251425Z 23015KT 6000 NSC 28/23 Q1006 NOSIG

Время: 19:35 (14:35 UTC)

Прогноз

Эта сводка был подготовлена 4 часа и 35 минут назад, в 10:00 UTC
Прогноз действительный с 25-го 12 UTC до 26-го 18 UTC
Ветер 12 Узел от западный-юго-западный с порывами до 22 Узел
Видимость: 6000 м
изменения
С 25-го 19 UTC до 25-го 21 UTC
Ветер 5 Узел от западный с порывами до 15 Узел
Видимость: 5000 м
мгла
С 26-го 0600 UTC
Ветер 10 Узел от западный-юго-западный с порывами до 20 Узел
Видимость: 7000 м

TAF: OPKC 251000Z 2512/2618 25012G22KT 6000 NSC BECMG 2519/2521 28005G15KT 5000 HZ NSC FM260600 24010G20KT 7000 NSC

Метеонаблюдения и прогнозы для более 4000 аэропортов (сводки METAR и TAF).

Имеющиеся станции представлены на карте желтыми и красными точками.

Чтобы увидеть название станции, наведите на нее мышь.

Затем щелкните, чтобы увидеть метеонаблюдения и метеопрогнозы.

Управление картой: чтобы увеличить масштаб, щелкните зеленые кнопки с черным крестиком; чтобы уменьшить масштаб, щелкните зеленую кнопку с тире; для просмотра соседних карт щелкайте зеленые стрелки.


METAR-TAF: